createdAt,value
2023-02-03T00:00:52.749Z,99693.94
2023-02-03T00:03:19.245Z,99698.38
2023-02-03T00:05:47.086Z,99695.88
2023-02-03T00:08:15.012Z,99696.31
2023-02-03T00:10:41.952Z,99702.06
2023-02-03T00:13:09.253Z,99690.91
2023-02-03T00:15:35.717Z,99696.56
2023-02-03T00:18:02.207Z,99696.84
2023-02-03T00:20:29.107Z,99693.25
2023-02-03T00:23:02.450Z,99698.22
2023-02-03T00:25:28.890Z,99705.41
2023-02-03T00:27:55.502Z,99706.53
2023-02-03T00:30:21.965Z,99708.84
2023-02-03T00:32:49.603Z,99700.16
2023-02-03T00:35:16.189Z,99698.66
2023-02-03T00:37:42.862Z,99687.72
2023-02-03T00:40:10.020Z,99683.34
2023-02-03T00:42:36.543Z,99675.59
2023-02-03T00:45:03.510Z,99669.50
2023-02-03T00:47:29.976Z,99670.75
2023-02-03T00:49:56.825Z,99666.47
2023-02-03T00:52:23.282Z,99658.59
2023-02-03T00:54:49.785Z,99671.16
2023-02-03T00:57:16.649Z,99681.91
2023-02-03T00:59:43.100Z,99696.13
2023-02-03T01:02:09.616Z,99676.41
2023-02-03T01:04:36.106Z,99648.97
2023-02-03T01:07:03.824Z,99665.78
2023-02-03T01:09:33.794Z,99672.81
2023-02-03T01:12:00.419Z,99677.50
2023-02-03T01:14:26.913Z,99668.25
2023-02-03T01:16:53.591Z,99672.66
2023-02-03T01:19:20.289Z,99664.28
2023-02-03T01:21:46.751Z,99650.19
2023-02-03T01:24:15.042Z,99646.19
2023-02-03T01:26:41.761Z,99635.56
2023-02-03T01:29:09.143Z,99628.41
2023-02-03T01:31:42.251Z,99621.91
2023-02-03T01:34:13.313Z,99613.22
2023-02-03T01:36:40.209Z,99596.94
2023-02-03T01:39:06.822Z,99591.03
2023-02-03T01:41:37.625Z,99571.56
2023-02-03T01:44:35.951Z,99576.69
2023-02-03T01:47:04.184Z,99587.13
2023-02-03T01:49:36.400Z,99596.09
2023-02-03T01:52:04.856Z,99596.81
2023-02-03T01:54:35.487Z,99594.19
2023-02-03T01:57:06.129Z,99583.56
2023-02-03T01:59:35.047Z,99582.03
2023-02-03T02:02:03.306Z,99590.75
2023-02-03T02:04:37.644Z,99587.97
2023-02-03T02:07:04.803Z,99571.16
2023-02-03T02:09:31.378Z,99570.75
2023-02-03T02:11:57.851Z,99576.81
2023-02-03T02:14:24.400Z,99579.03
2023-02-03T02:17:05.940Z,99576.81
2023-02-03T02:20:10.807Z,99574.31
2023-02-03T02:23:00.823Z,99579.56
2023-02-03T02:25:46.903Z,99567.16
2023-02-03T02:28:28.514Z,99573.22
2023-02-03T02:31:29.901Z,99581.09
2023-02-03T02:34:14.376Z,99581.91
2023-02-03T02:37:22.619Z,99578.19
2023-02-03T02:40:20.502Z,99583.56
2023-02-03T02:43:17.466Z,99585.06
2023-02-03T02:45:54.377Z,99577.34
2023-02-03T02:48:37.893Z,99568.25
2023-02-03T02:51:07.812Z,99565.34
2023-02-03T02:53:39.534Z,99588.41
2023-02-03T02:56:11.508Z,99600.78
2023-02-03T02:58:41.210Z,99602.31
2023-02-03T03:01:09.636Z,99606.47
2023-02-03T03:03:40.561Z,99612.53
2023-02-03T03:06:11.609Z,99615.16
2023-02-03T03:08:46.810Z,99620.13
2023-02-03T03:11:13.331Z,99626.88
2023-02-03T03:13:46.991Z,99631.16
2023-02-03T03:16:15.144Z,99640.69
2023-02-03T03:18:50.391Z,99638.31
2023-02-03T03:21:26.574Z,99657.38
2023-02-03T03:23:57.125Z,99657.22
2023-02-03T03:26:27.838Z,99664.56
2023-02-03T03:29:03.535Z,99660.81
2023-02-03T03:31:30.642Z,99665.66
2023-02-03T03:33:57.234Z,99666.63
2023-02-03T03:36:29.115Z,99662.91
2023-02-03T03:39:09.962Z,99655.97
2023-02-03T03:41:42.811Z,99644.56
2023-02-03T03:44:14.989Z,99621.09
2023-02-03T03:46:49.830Z,99619.44
2023-02-03T03:49:18.816Z,99618.19
2023-02-03T03:51:54.248Z,99619.13
2023-02-03T03:54:23.273Z,99624.38
2023-02-03T03:57:00.724Z,99614.59
2023-02-03T03:59:31.317Z,99617.06
2023-02-03T04:02:04.353Z,99615.69
2023-02-03T04:04:33.779Z,99600.91
2023-02-03T04:07:00.240Z,99605.50
2023-02-03T04:09:26.710Z,99604.81
2023-02-03T04:12:02.203Z,99619.03
2023-02-03T04:14:30.548Z,99628.81
2023-02-03T04:16:57.928Z,99642.63
2023-02-03T04:19:25.080Z,99641.38
2023-02-03T04:21:51.949Z,99627.56
2023-02-03T04:24:18.545Z,99622.47
2023-02-03T04:26:45.030Z,99602.59
2023-02-03T04:29:11.665Z,99597.06
2023-02-03T04:31:38.713Z,99602.88
2023-02-03T04:34:06.063Z,99607.16
2023-02-03T04:36:32.535Z,99603.56
2023-02-03T04:38:59.029Z,99616.13
2023-02-03T04:41:25.578Z,99624.94
2023-02-03T04:43:52.098Z,99619.41
2023-02-03T04:46:19.006Z,99623.72
2023-02-03T04:48:45.483Z,99619.97
2023-02-03T04:51:11.944Z,99626.88
2023-02-03T04:53:38.440Z,99611.72
2023-02-03T04:56:05.328Z,99611.72
2023-02-03T04:58:31.841Z,99608.41
2023-02-03T05:00:58.396Z,99603.69
2023-02-03T05:03:26.205Z,99604.53
2023-02-03T05:05:52.896Z,99603.03
2023-02-03T05:08:19.543Z,99598.63
2023-02-03T05:10:46.483Z,99589.50
2023-02-03T05:13:13.056Z,99603.97
2023-02-03T05:15:39.503Z,99604.53
2023-02-03T05:18:05.994Z,99597.38
2023-02-03T05:20:32.449Z,99578.88
2023-02-03T05:22:58.951Z,99596.00
2023-02-03T05:25:25.510Z,99581.91
2023-02-03T05:27:52.004Z,99587.28
2023-02-03T05:30:18.761Z,99608.25
2023-02-03T05:32:45.211Z,99613.09
2023-02-03T05:35:11.670Z,99603.16
2023-02-03T05:37:38.141Z,99602.75
2023-02-03T05:40:23.779Z,99597.22
2023-02-03T05:42:50.551Z,99590.59
2023-02-03T05:45:17.157Z,99592.00
2023-02-03T05:47:43.661Z,99604.38
2023-02-03T05:50:10.285Z,99605.34
2023-02-03T05:52:36.754Z,99601.91
2023-02-03T05:55:04.458Z,99603.28
2023-02-03T05:57:32.364Z,99613.22
2023-02-03T05:59:59.052Z,99609.09
2023-02-03T06:02:25.552Z,99605.09
2023-02-03T06:04:52.129Z,99603.84
2023-02-03T06:07:18.653Z,99607.84
2023-02-03T06:09:45.281Z,99600.50
2023-02-03T06:12:11.863Z,99610.47
2023-02-03T06:14:38.307Z,99610.19
2023-02-03T06:17:04.816Z,99601.63
2023-02-03T06:19:31.303Z,99591.03
2023-02-03T06:21:57.782Z,99590.88
2023-02-03T06:24:24.235Z,99582.34
2023-02-03T06:26:50.660Z,99574.59
2023-02-03T06:29:17.154Z,99568.69
2023-02-03T06:31:43.737Z,99563.16
2023-02-03T06:34:10.394Z,99551.97
2023-02-03T06:36:37.023Z,99558.31
2023-02-03T06:39:03.562Z,99559.44
2023-02-03T06:41:30.584Z,99563.69
2023-02-03T06:43:57.246Z,99565.75
2023-02-03T06:46:28.070Z,99567.56
2023-02-03T06:48:54.587Z,99558.06
2023-02-03T06:51:21.059Z,99572.81
2023-02-03T06:53:47.532Z,99565.22
2023-02-03T06:56:13.968Z,99559.44
2023-02-03T06:58:40.468Z,99576.69
2023-02-03T07:01:07.130Z,99570.88
2023-02-03T07:03:33.641Z,99586.19
2023-02-03T07:06:00.114Z,99592.53
2023-02-03T07:08:26.554Z,99593.63
2023-02-03T07:10:56.394Z,99586.88
2023-02-03T07:13:22.906Z,99595.00
2023-02-03T07:15:49.375Z,99611.44
2023-02-03T07:18:25.668Z,99616.81
2023-02-03T07:21:05.172Z,99616.53
2023-02-03T07:23:31.715Z,99626.59
2023-02-03T07:26:02.885Z,99621.78
2023-02-03T07:28:29.321Z,99636.13
2023-02-03T07:30:55.863Z,99638.75
2023-02-03T07:33:22.352Z,99632.66
2023-02-03T07:35:56.745Z,99646.06
2023-02-03T07:38:24.281Z,99652.13
2023-02-03T07:40:50.865Z,99652.28
2023-02-03T07:43:17.499Z,99659.31
2023-02-03T07:45:44.593Z,99649.09
2023-02-03T07:48:11.086Z,99644.41
2023-02-03T07:50:37.739Z,99638.75
2023-02-03T07:53:04.846Z,99639.59
2023-02-03T07:55:31.360Z,99645.78
2023-02-03T07:57:58.312Z,99649.50
2023-02-03T08:00:25.984Z,99638.88
2023-02-03T08:02:52.705Z,99636.81
2023-02-03T08:05:19.146Z,99643.44
2023-02-03T08:07:45.672Z,99653.78
2023-02-03T08:10:15.334Z,99641.78
2023-02-03T08:12:45.103Z,99632.25
2023-02-03T08:15:11.738Z,99624.69
2023-02-03T08:17:40.089Z,99637.09
2023-02-03T08:20:08.170Z,99647.16
2023-02-03T08:22:34.662Z,99649.25
2023-02-03T08:25:01.113Z,99643.84
2023-02-03T08:27:27.720Z,99652.81
2023-02-03T08:29:54.185Z,99663.44
2023-02-03T08:32:22.420Z,99666.50
2023-02-03T08:34:49.959Z,99644.97
2023-02-03T08:37:18.455Z,99661.66
2023-02-03T08:39:45.062Z,99647.16
2023-02-03T08:42:11.499Z,99642.63
2023-02-03T08:44:39.109Z,99648.25
2023-02-03T08:47:06.759Z,99650.19
2023-02-03T08:49:35.706Z,99656.69
2023-02-03T08:52:02.189Z,99658.06
2023-02-03T08:54:28.620Z,99652.53
2023-02-03T08:56:55.115Z,99654.88
2023-02-03T08:59:21.586Z,99654.28
2023-02-03T09:01:48.512Z,99660.78
2023-02-03T09:04:24.443Z,99654.03
2023-02-03T09:06:54.392Z,99654.19
2023-02-03T09:09:21.321Z,99657.63
2023-02-03T09:11:48.129Z,99656.97
2023-02-03T09:14:14.707Z,99649.63
2023-02-03T09:16:41.213Z,99649.34
2023-02-03T09:19:07.738Z,99656.53
2023-02-03T09:21:40.252Z,99645.50
2023-02-03T09:24:11.092Z,99636.66
2023-02-03T09:26:37.595Z,99651.69
2023-02-03T09:29:04.481Z,99632.91
2023-02-03T09:31:30.983Z,99627.50
2023-02-03T09:33:59.973Z,99625.97
2023-02-03T09:36:26.691Z,99645.72
2023-02-03T09:38:53.275Z,99652.78
2023-02-03T09:41:44.189Z,99655.41
2023-02-03T09:44:22.052Z,99658.44
2023-02-03T09:46:55.349Z,99664.97
2023-02-03T09:49:21.811Z,99655.44
2023-02-03T09:52:25.633Z,99637.47
2023-02-03T09:55:06.435Z,99630.00
2023-02-03T09:57:47.305Z,99620.59
2023-02-03T10:00:20.928Z,99610.75
2023-02-03T10:02:58.431Z,99607.72
2023-02-03T10:06:02.686Z,99607.97
2023-02-03T10:08:50.251Z,99609.75
2023-02-03T10:11:31.001Z,99629.59
2023-02-03T10:14:18.743Z,99625.09
2023-02-03T10:17:07.092Z,99627.72
2023-02-03T10:19:51.736Z,99625.25
2023-02-03T10:22:27.311Z,99626.03
2023-02-03T10:25:11.214Z,99622.91
2023-02-03T10:27:38.523Z,99628.88
2023-02-03T10:30:24.540Z,99624.16
2023-02-03T10:32:57.604Z,99622.78
2023-02-03T10:35:38.914Z,99628.88
2023-02-03T10:38:10.712Z,99629.28
2023-02-03T10:40:37.393Z,99618.06
2023-02-03T10:43:22.531Z,99616.19
2023-02-03T10:45:48.989Z,99612.03
2023-02-03T10:48:18.287Z,99628.38
2023-02-03T10:50:50.251Z,99608.75
2023-02-03T10:53:22.888Z,99603.91
2023-02-03T10:55:59.761Z,99605.03
2023-02-03T10:58:28.824Z,99600.69
2023-02-03T11:01:11.965Z,99602.78
2023-02-03T11:03:42.228Z,99591.03
2023-02-03T11:06:08.589Z,99588.06
2023-02-03T11:08:37.724Z,99580.56
2023-02-03T11:11:09.626Z,99585.72
2023-02-03T11:13:36.254Z,99589.00
2023-02-03T11:16:06.321Z,99595.25
2023-02-03T11:18:43.536Z,99583.66
2023-02-03T11:21:16.796Z,99586.59
2023-02-03T11:24:01.892Z,99574.00
2023-02-03T11:26:48.521Z,99573.59
2023-02-03T11:29:24.071Z,99575.41
2023-02-03T11:31:53.306Z,99578.84
2023-02-03T11:34:24.315Z,99589.13
2023-02-03T11:36:51.090Z,99596.41
2023-02-03T11:39:25.753Z,99606.47
2023-02-03T11:41:52.856Z,99607.28
2023-02-03T11:44:31.366Z,99625.81
2023-02-03T11:47:03.636Z,99624.16
2023-02-03T11:49:45.483Z,99633.13
2023-02-03T11:52:39.844Z,99634.94
2023-02-03T11:55:41.175Z,99630.66
2023-02-03T11:58:29.028Z,99642.28
2023-02-03T12:01:19.355Z,99642.81
2023-02-03T12:04:04.403Z,99638.69
2023-02-03T12:06:55.052Z,99648.25
2023-02-03T12:09:54.780Z,99652.53
2023-02-03T12:12:32.003Z,99650.03
2023-02-03T12:15:16.198Z,99638.59
2023-02-03T12:17:51.867Z,99641.31
2023-02-03T12:20:35.771Z,99623.13
2023-02-03T12:23:13.905Z,99623.53
2023-02-03T12:25:57.246Z,99610.44
2023-02-03T12:28:33.608Z,99586.44
2023-02-03T12:31:08.809Z,99582.28
2023-02-03T12:33:44.349Z,99590.00
2023-02-03T12:36:41.476Z,99600.63
2023-02-03T12:39:10.928Z,99580.31
2023-02-03T12:41:43.080Z,99579.22
2023-02-03T12:44:19.829Z,99584.06
2023-02-03T12:46:58.052Z,99577.59
2023-02-03T12:49:35.319Z,99589.31
2023-02-03T12:52:46.823Z,99568.19
2023-02-03T12:55:30.542Z,99571.63
2023-02-03T12:58:07.491Z,99560.44
2023-02-03T13:00:45.024Z,99557.56
2023-02-03T13:03:37.102Z,99549.41
2023-02-03T13:06:28.265Z,99549.81
2023-02-03T13:09:02.647Z,99551.75
2023-02-03T13:11:34.108Z,99553.84
2023-02-03T13:14:14.197Z,99546.66
2023-02-03T13:16:44.942Z,99544.19
2023-02-03T13:19:18.737Z,99557.03
2023-02-03T13:21:47.723Z,99533.13
2023-02-03T13:24:14.251Z,99533.97
2023-02-03T13:27:07.465Z,99550.25
2023-02-03T13:30:04.880Z,99549.59
2023-02-03T13:33:02.948Z,99533.53
2023-02-03T13:35:59.520Z,99528.72
2023-02-03T13:38:47.127Z,99527.63
2023-02-03T13:41:14.081Z,99527.09
2023-02-03T13:43:46.643Z,99525.69
2023-02-03T13:46:29.259Z,99544.63
2023-02-03T13:48:58.617Z,99534.13
2023-02-03T13:51:34.702Z,99521.69
2023-02-03T13:54:08.620Z,99517.25
2023-02-03T13:56:35.449Z,99510.75
2023-02-03T13:59:28.538Z,99509.41
2023-02-03T14:02:24.265Z,99501.00
2023-02-03T14:04:55.032Z,99510.09
2023-02-03T14:07:27.463Z,99503.88
2023-02-03T14:10:12.264Z,99518.63
2023-02-03T14:13:00.102Z,99524.31
2023-02-03T14:15:28.191Z,99532.41
2023-02-03T14:17:56.035Z,99527.16
2023-02-03T14:20:25.592Z,99533.94
2023-02-03T14:23:16.929Z,99535.84
2023-02-03T14:26:02.123Z,99539.56
2023-02-03T14:28:38.990Z,99548.56
2023-02-03T14:31:22.357Z,99536.72
2023-02-03T14:33:48.837Z,99538.06
2023-02-03T14:36:39.058Z,99552.13
2023-02-03T14:39:17.935Z,99539.31
2023-02-03T14:41:55.744Z,99544.69
2023-02-03T14:44:31.359Z,99543.72
2023-02-03T14:47:36.164Z,99548.41
2023-02-03T14:50:27.135Z,99552.84
2023-02-03T14:53:15.376Z,99561.38
2023-02-03T14:56:06.663Z,99555.75
2023-02-03T14:58:42.916Z,99564.00
2023-02-03T15:01:42.823Z,99552.78
2023-02-03T15:04:12.359Z,99563.06
2023-02-03T15:06:44.603Z,99564.94
2023-02-03T15:09:25.944Z,99562.31
2023-02-03T15:11:52.485Z,99567.88
2023-02-03T15:14:20.963Z,99566.19
2023-02-03T15:16:55.293Z,99573.25
2023-02-03T15:19:27.812Z,99572.28
2023-02-03T15:21:54.411Z,99575.88
2023-02-03T15:24:23.889Z,99579.47
2023-02-03T15:26:55.626Z,99582.78
2023-02-03T15:29:28.161Z,99583.59
2023-02-03T15:32:01.719Z,99582.47
2023-02-03T15:34:32.869Z,99572.69
2023-02-03T15:37:06.651Z,99571.16
2023-02-03T15:39:55.849Z,99581.94
2023-02-03T15:42:28.582Z,99582.47
2023-02-03T15:45:01.732Z,99582.34
2023-02-03T15:47:37.144Z,99573.94
2023-02-03T15:50:18.044Z,99576.41
2023-02-03T15:52:46.103Z,99588.84
2023-02-03T15:55:31.824Z,99585.53
2023-02-03T15:57:59.144Z,99588.97
2023-02-03T16:00:31.317Z,99593.28
2023-02-03T16:03:00.333Z,99593.13
2023-02-03T16:05:35.357Z,99602.09
2023-02-03T16:08:30.704Z,99603.78
2023-02-03T16:10:57.199Z,99602.66
2023-02-03T16:13:26.140Z,99596.56
2023-02-03T16:16:03.273Z,99595.47
2023-02-03T16:18:29.732Z,99594.09
2023-02-03T16:20:56.301Z,99594.53
2023-02-03T16:23:27.412Z,99603.06
2023-02-03T16:26:18.540Z,99602.91
2023-02-03T16:29:22.755Z,99596.72
2023-02-03T16:32:08.499Z,99608.75
2023-02-03T16:34:53.606Z,99593.56
2023-02-03T16:37:44.124Z,99592.84
2023-02-03T16:40:31.097Z,99592.75
2023-02-03T16:43:15.985Z,99589.84
2023-02-03T16:46:01.437Z,99594.25
2023-02-03T16:48:46.483Z,99600.59
2023-02-03T16:51:16.083Z,99599.22
2023-02-03T16:53:45.072Z,99609.84
2023-02-03T16:56:13.813Z,99608.59
2023-02-03T16:58:40.917Z,99617.00
2023-02-03T17:01:09.495Z,99616.47
2023-02-03T17:03:36.708Z,99623.25
2023-02-03T17:06:09.766Z,99632.91
2023-02-03T17:08:37.598Z,99633.47
2023-02-03T17:11:07.503Z,99638.56
2023-02-03T17:13:34.956Z,99643.38
2023-02-03T17:16:01.553Z,99639.81
2023-02-03T17:18:28.362Z,99649.91
2023-02-03T17:20:55.473Z,99655.13
2023-02-03T17:23:22.966Z,99659.13
2023-02-03T17:25:49.989Z,99663.25
2023-02-03T17:28:16.914Z,99663.81
2023-02-03T17:30:43.794Z,99669.38
2023-02-03T17:33:14.219Z,99668.63
2023-02-03T17:35:42.198Z,99661.47
2023-02-03T17:38:10.155Z,99657.75
2023-02-03T17:54:23.581Z,99671.44
2023-02-03T17:56:50.035Z,99669.22
2023-02-03T17:59:16.564Z,99673.38
2023-02-03T18:01:43.053Z,99672.94
2023-02-03T18:04:09.740Z,99663.69
2023-02-03T18:06:36.237Z,99665.88
2023-02-03T18:09:08.085Z,99672.50
2023-02-03T18:11:35.861Z,99671.84
2023-02-03T18:14:05.021Z,99661.91
2023-02-03T18:16:34.699Z,99677.38
2023-02-03T18:19:03.089Z,99660.91
2023-02-03T18:21:32.154Z,99666.72
2023-02-03T18:24:01.633Z,99668.25
2023-02-03T18:26:34.519Z,99668.50
2023-02-03T18:29:01.377Z,99672.94
2023-02-03T18:31:28.174Z,99671.13
2023-02-03T18:33:54.794Z,99671.53
2023-02-03T18:36:21.302Z,99681.22
2023-02-03T18:38:48.264Z,99679.56
2023-02-03T18:41:23.414Z,99682.19
2023-02-03T18:43:50.243Z,99676.78
2023-02-03T18:46:22.589Z,99687.72
2023-02-03T18:48:49.769Z,99688.25
2023-02-03T18:51:17.923Z,99683.00
2023-02-03T18:53:46.583Z,99689.50
2023-02-03T18:56:21.581Z,99679.16
2023-02-03T18:58:48.595Z,99688.25
2023-02-03T19:01:29.101Z,99685.91
2023-02-03T19:03:57.616Z,99687.81
2023-02-03T19:06:25.386Z,99686.34
2023-02-03T19:08:52.385Z,99690.75
2023-02-03T19:11:19.381Z,99698.22
2023-02-03T19:13:46.303Z,99693.22
2023-02-03T19:16:14.924Z,99707.44
2023-02-03T19:18:41.445Z,99710.78
2023-02-03T19:21:07.918Z,99707.88
2023-02-03T19:23:34.376Z,99716.97
2023-02-03T19:26:01.998Z,99724.00
2023-02-03T19:28:31.193Z,99722.91
2023-02-03T19:31:10.541Z,99732.44
2023-02-03T19:33:37.773Z,99740.44
2023-02-03T19:36:06.422Z,99740.03
2023-02-03T19:38:33.253Z,99738.66
2023-02-03T19:41:01.562Z,99740.75
2023-02-03T19:43:29.730Z,99745.84
2023-02-03T19:45:56.407Z,99736.03
2023-02-03T19:48:22.874Z,99737.56
2023-02-03T19:50:49.397Z,99740.72
2023-02-03T19:53:17.355Z,99742.66
2023-02-03T19:55:44.610Z,99740.19
2023-02-03T19:58:12.451Z,99749.84
2023-02-03T20:00:39.216Z,99751.09
2023-02-03T20:03:05.768Z,99752.63
2023-02-03T20:05:32.363Z,99754.56
2023-02-03T20:07:58.878Z,99760.34
2023-02-03T20:10:28.244Z,99750.69
2023-02-03T20:12:55.374Z,99745.81
2023-02-03T20:15:22.532Z,99751.38
2023-02-03T20:17:49.156Z,99747.38
2023-02-03T20:20:18.172Z,99744.03
2023-02-03T20:22:46.203Z,99744.88
2023-02-03T20:25:12.702Z,99754.94
2023-02-03T20:27:39.206Z,99754.00
2023-02-03T20:30:06.241Z,99759.94
2023-02-03T20:32:32.771Z,99750.53
2023-02-03T20:34:59.951Z,99755.25
2023-02-03T20:37:26.429Z,99745.69
2023-02-03T20:39:52.988Z,99758.94
2023-02-03T20:42:19.546Z,99750.94
2023-02-03T20:44:46.074Z,99753.16
2023-02-03T20:47:14.756Z,99747.66
2023-02-03T20:49:41.335Z,99754.28
2023-02-03T20:52:16.423Z,99746.25
2023-02-03T20:54:43.533Z,99749.69
2023-02-03T20:57:18.726Z,99755.94
2023-02-03T20:59:46.325Z,99754.56
2023-02-03T21:02:53.742Z,99751.50
2023-02-03T21:05:25.998Z,99745.69
2023-02-03T21:07:52.611Z,99753.16
2023-02-03T21:10:21.478Z,99753.16
2023-02-03T21:12:49.096Z,99761.69
2023-02-03T21:15:28.245Z,99766.00
2023-02-03T21:17:55.163Z,99774.28
2023-02-03T21:20:27.866Z,99766.28
2023-02-03T21:22:55.971Z,99765.56
2023-02-03T21:25:33.602Z,99768.91
2023-02-03T21:28:01.077Z,99763.38
2023-02-03T21:30:34.650Z,99764.75
2023-02-03T21:33:14.656Z,99763.38
2023-02-03T21:35:41.122Z,99767.66
2023-02-03T21:38:37.023Z,99775.25
2023-02-03T21:41:18.458Z,99778.59
2023-02-03T21:43:54.676Z,99780.38
2023-02-03T21:46:29.528Z,99778.84
2023-02-03T21:48:57.482Z,99786.31
2023-02-03T21:51:26.735Z,99787.84
2023-02-03T21:53:58.948Z,99784.22
2023-02-03T21:56:28.292Z,99791.41
2023-02-03T21:58:58.758Z,99800.25
2023-02-03T22:01:27.135Z,99787.41
2023-02-03T22:03:55.378Z,99800.97
2023-02-03T22:06:24.323Z,99801.78
2023-02-03T22:08:56.291Z,99811.47
2023-02-03T22:11:26.512Z,99803.44
2023-02-03T22:13:53.041Z,99799.59
2023-02-03T22:16:19.648Z,99789.50
2023-02-03T22:18:47.625Z,99782.97
2023-02-03T22:21:14.828Z,99785.88
2023-02-03T22:23:41.913Z,99777.34
2023-02-03T22:26:09.754Z,99785.88
2023-02-03T22:28:36.717Z,99781.22
2023-02-03T22:31:07.395Z,99794.34
2023-02-03T22:33:35.165Z,99786.31
2023-02-03T22:36:03.212Z,99790.16
2023-02-03T22:38:30.567Z,99795.16
2023-02-03T22:40:57.002Z,99796.13
2023-02-03T22:43:23.558Z,99796.13
2023-02-03T22:45:50.055Z,99802.47
2023-02-03T22:48:16.610Z,99808.81
2023-02-03T22:50:43.065Z,99807.97
2023-02-03T22:53:09.731Z,99814.91
2023-02-03T22:55:39.463Z,99803.72
2023-02-03T22:58:07.505Z,99809.66
2023-02-03T23:00:34.834Z,99820.53
2023-02-03T23:03:01.669Z,99816.53
2023-02-03T23:05:28.315Z,99823.91
2023-02-03T23:07:54.961Z,99815.84
2023-02-03T23:10:24.747Z,99824.16
2023-02-03T23:12:52.120Z,99823.06
2023-02-03T23:15:19.093Z,99827.50
2023-02-03T23:17:45.826Z,99833.31
2023-02-03T23:20:13.836Z,99841.75
2023-02-03T23:22:40.336Z,99835.09
2023-02-03T23:25:07.141Z,99837.97
2023-02-03T23:27:33.609Z,99839.91
2023-02-03T23:30:00.052Z,99838.00
2023-02-03T23:32:26.650Z,99823.06
2023-02-03T23:35:11.537Z,99827.47
2023-02-03T23:37:38.071Z,99829.97
2023-02-03T23:40:05.286Z,99827.78
2023-02-03T23:42:31.747Z,99825.16
2023-02-03T23:44:59.141Z,99828.88
2023-02-03T23:47:25.627Z,99823.34
2023-02-03T23:49:52.156Z,99831.22
2023-02-03T23:52:18.660Z,99824.72
2023-02-03T23:54:45.134Z,99825.00
2023-02-03T23:57:11.625Z,99830.53
2023-02-03T23:59:38.073Z,99837.16
